首页
METAR-TAF:

METAR-TAF

机场 :

Omak Airport

Omak, 华盛顿, 美国

纬度: 48-27-51N, 经度: 119-31-05W, 海拔: 397米

当前天气观测

该预报发布于1小时和0分钟前的23:53 UTC
风速4节,风向南转南东
温度 1°C
湿度 86%
气压 1024 hPa
能見度: 16.1公里
阴天层高于1800英尺

METAR: KOMK 102353Z AUTO 16004KT 10SM OVC018 01/M01 A3025 RMK AO2 SLP258 T00061006 10006 20000 53006

时间: 16:53 (00:53 UTC)


TAF: 丢失

超过4000个机场的气象观测和天气预报(METAR&TAF报告)。

可查询的气象台以黄色和红色小点在地图上表示。

将鼠标移到小点上方,可查看气象台名称。

然后点击查看天气观测和预报。

如需切换地图:点击带黑十字的绿色按钮放大地图;点击带横线的绿色按钮缩小地图;或者点击绿色箭头查看邻近地区的地图。


METAR-TAF: